sensor_id;sensor_type;location;lat;lon;timestamp;P1;durP1;ratioP1;P2;durP2;ratioP2
47273;SDS011;33007;49.082;19.306;2022-10-23T00:01:19;11.88;;;10.60;;
47273;SDS011;33007;49.082;19.306;2022-10-23T00:04:14;13.50;;;10.30;;
47273;SDS011;33007;49.082;19.306;2022-10-23T00:06:43;15.95;;;10.77;;
47273;SDS011;33007;49.082;19.306;2022-10-23T00:09:10;11.63;;;10.25;;
47273;SDS011;33007;49.082;19.306;2022-10-23T00:11:38;12.82;;;10.23;;
47273;SDS011;33007;49.082;19.306;2022-10-23T00:14:04;14.02;;;11.23;;
47273;SDS011;33007;49.082;19.306;2022-10-23T00:16:31;11.35;;;9.80;;
47273;SDS011;33007;49.082;19.306;2022-10-23T00:18:57;12.63;;;9.77;;
47273;SDS011;33007;49.082;19.306;2022-10-23T00:21:23;12.68;;;9.85;;
47273;SDS011;33007;49.082;19.306;2022-10-23T00:23:49;50.75;;;11.80;;
47273;SDS011;33007;49.082;19.306;2022-10-23T00:26:17;14.93;;;11.27;;
47273;SDS011;33007;49.082;19.306;2022-10-23T00:28:43;12.38;;;10.00;;
47273;SDS011;33007;49.082;19.306;2022-10-23T00:31:13;13.25;;;10.10;;
47273;SDS011;33007;49.082;19.306;2022-10-23T00:33:39;12.65;;;10.45;;
47273;SDS011;33007;49.082;19.306;2022-10-23T00:36:07;12.25;;;10.43;;
47273;SDS011;33007;49.082;19.306;2022-10-23T00:38:34;15.80;;;10.82;;
47273;SDS011;33007;49.082;19.306;2022-10-23T00:41:01;30.33;;;10.85;;
47273;SDS011;33007;49.082;19.306;2022-10-23T00:43:28;16.23;;;11.20;;
47273;SDS011;33007;49.082;19.306;2022-10-23T00:45:54;14.43;;;11.93;;
47273;SDS011;33007;49.082;19.306;2022-10-23T00:48:21;16.55;;;11.38;;
47273;SDS011;33007;49.082;19.306;2022-10-23T00:50:47;16.60;;;12.38;;
47273;SDS011;33007;49.082;19.306;2022-10-23T00:53:13;16.35;;;11.23;;
47273;SDS011;33007;49.082;19.306;2022-10-23T00:55:42;15.38;;;11.43;;
47273;SDS011;33007;49.082;19.306;2022-10-23T00:58:11;15.55;;;11.90;;
47273;SDS011;33007;49.082;19.306;2022-10-23T01:00:56;12.45;;;10.50;;
47273;SDS011;33007;49.082;19.306;2022-10-23T01:03:24;16.13;;;10.90;;
47273;SDS011;33007;49.082;19.306;2022-10-23T01:11:18;19.00;;;11.75;;
47273;SDS011;33007;49.082;19.306;2022-10-23T01:17:07;28.15;;;11.45;;
47273;SDS011;33007;49.082;19.306;2022-10-23T01:27:24;13.60;;;10.52;;
47273;SDS011;33007;49.082;19.306;2022-10-23T01:30:03;16.98;;;10.60;;
47273;SDS011;33007;49.082;19.306;2022-10-23T01:37:48;15.40;;;11.00;;
47273;SDS011;33007;49.082;19.306;2022-10-23T01:40:20;14.23;;;10.88;;
47273;SDS011;33007;49.082;19.306;2022-10-23T01:42:52;13.48;;;9.93;;
47273;SDS011;33007;49.082;19.306;2022-10-23T01:45:25;12.82;;;10.27;;
47273;SDS011;33007;49.082;19.306;2022-10-23T01:47:57;12.55;;;10.73;;
47273;SDS011;33007;49.082;19.306;2022-10-23T01:50:26;14.57;;;10.63;;
47273;SDS011;33007;49.082;19.306;2022-10-23T01:52:53;12.45;;;9.70;;
47273;SDS011;33007;49.082;19.306;2022-10-23T01:55:18;14.75;;;10.20;;
47273;SDS011;33007;49.082;19.306;2022-10-23T01:57:44;14.05;;;10.48;;
47273;SDS011;33007;49.082;19.306;2022-10-23T02:00:14;11.82;;;9.73;;
47273;SDS011;33007;49.082;19.306;2022-10-23T02:02:42;12.85;;;9.80;;
47273;SDS011;33007;49.082;19.306;2022-10-23T02:05:30;11.05;;;9.45;;
47273;SDS011;33007;49.082;19.306;2022-10-23T02:07:55;10.65;;;9.20;;
47273;SDS011;33007;49.082;19.306;2022-10-23T02:10:22;11.10;;;8.77;;
47273;SDS011;33007;49.082;19.306;2022-10-23T02:13:05;11.07;;;9.18;;
47273;SDS011;33007;49.082;19.306;2022-10-23T02:15:46;54.90;;;10.75;;
47273;SDS011;33007;49.082;19.306;2022-10-23T02:21:04;13.05;;;8.32;;
47273;SDS011;33007;49.082;19.306;2022-10-23T02:23:39;14.25;;;8.95;;
47273;SDS011;33007;49.082;19.306;2022-10-23T02:29:25;12.05;;;9.07;;
47273;SDS011;33007;49.082;19.306;2022-10-23T02:31:55;14.85;;;10.68;;
47273;SDS011;33007;49.082;19.306;2022-10-23T02:34:24;13.85;;;10.18;;
47273;SDS011;33007;49.082;19.306;2022-10-23T02:36:50;11.35;;;9.20;;
47273;SDS011;33007;49.082;19.306;2022-10-23T02:39:16;13.07;;;9.15;;
47273;SDS011;33007;49.082;19.306;2022-10-23T02:47:15;11.38;;;8.27;;
47273;SDS011;33007;49.082;19.306;2022-10-23T02:52:48;24.92;;;9.40;;
47273;SDS011;33007;49.082;19.306;2022-10-23T02:57:54;11.43;;;8.73;;
47273;SDS011;33007;49.082;19.306;2022-10-23T03:00:28;11.38;;;8.38;;
47273;SDS011;33007;49.082;19.306;2022-10-23T03:03:01;13.02;;;8.18;;
47273;SDS011;33007;49.082;19.306;2022-10-23T03:05:39;10.38;;;7.97;;
47273;SDS011;33007;49.082;19.306;2022-10-23T03:08:09;10.05;;;8.20;;
47273;SDS011;33007;49.082;19.306;2022-10-23T03:10:37;10.45;;;7.68;;
47273;SDS011;33007;49.082;19.306;2022-10-23T03:13:03;10.50;;;8.02;;
47273;SDS011;33007;49.082;19.306;2022-10-23T03:15:29;10.30;;;7.22;;
47273;SDS011;33007;49.082;19.306;2022-10-23T03:17:54;8.93;;;6.80;;
47273;SDS011;33007;49.082;19.306;2022-10-23T03:20:20;11.50;;;7.97;;
47273;SDS011;33007;49.082;19.306;2022-10-23T03:22:45;16.77;;;10.35;;
47273;SDS011;33007;49.082;19.306;2022-10-23T03:25:11;13.57;;;10.05;;
47273;SDS011;33007;49.082;19.306;2022-10-23T03:27:37;15.10;;;10.20;;
47273;SDS011;33007;49.082;19.306;2022-10-23T03:30:03;13.95;;;10.32;;
47273;SDS011;33007;49.082;19.306;2022-10-23T03:32:29;11.65;;;9.98;;
47273;SDS011;33007;49.082;19.306;2022-10-23T03:34:55;15.95;;;11.43;;
47273;SDS011;33007;49.082;19.306;2022-10-23T03:37:21;12.82;;;10.02;;
47273;SDS011;33007;49.082;19.306;2022-10-23T03:39:46;17.17;;;10.77;;
47273;SDS011;33007;49.082;19.306;2022-10-23T03:42:12;11.63;;;9.77;;
47273;SDS011;33007;49.082;19.306;2022-10-23T03:44:38;11.70;;;9.20;;
47273;SDS011;33007;49.082;19.306;2022-10-23T03:47:03;11.73;;;8.38;;
47273;SDS011;33007;49.082;19.306;2022-10-23T03:49:29;8.63;;;7.72;;
47273;SDS011;33007;49.082;19.306;2022-10-23T03:51:55;13.25;;;7.85;;
47273;SDS011;33007;49.082;19.306;2022-10-23T03:54:24;10.20;;;8.73;;
47273;SDS011;33007;49.082;19.306;2022-10-23T03:56:51;14.77;;;8.35;;
47273;SDS011;33007;49.082;19.306;2022-10-23T03:59:18;9.05;;;7.85;;
47273;SDS011;33007;49.082;19.306;2022-10-23T04:01:43;17.45;;;8.20;;
47273;SDS011;33007;49.082;19.306;2022-10-23T04:04:10;14.95;;;8.88;;
47273;SDS011;33007;49.082;19.306;2022-10-23T04:06:36;19.17;;;8.98;;
47273;SDS011;33007;49.082;19.306;2022-10-23T04:09:02;83.78;;;9.90;;
47273;SDS011;33007;49.082;19.306;2022-10-23T04:11:28;11.60;;;8.82;;
47273;SDS011;33007;49.082;19.306;2022-10-23T04:13:54;35.72;;;9.90;;
47273;SDS011;33007;49.082;19.306;2022-10-23T04:16:19;29.25;;;10.00;;
47273;SDS011;33007;49.082;19.306;2022-10-23T04:18:45;24.00;;;9.32;;
47273;SDS011;33007;49.082;19.306;2022-10-23T04:21:11;41.78;;;10.55;;
47273;SDS011;33007;49.082;19.306;2022-10-23T04:23:37;25.58;;;8.80;;
47273;SDS011;33007;49.082;19.306;2022-10-23T04:26:03;36.55;;;9.30;;
47273;SDS011;33007;49.082;19.306;2022-10-23T04:28:29;9.05;;;8.05;;
47273;SDS011;33007;49.082;19.306;2022-10-23T04:30:55;14.00;;;9.20;;
47273;SDS011;33007;49.082;19.306;2022-10-23T04:33:20;9.50;;;8.50;;
47273;SDS011;33007;49.082;19.306;2022-10-23T04:35:46;18.33;;;8.13;;
47273;SDS011;33007;49.082;19.306;2022-10-23T04:38:12;51.13;;;10.38;;
47273;SDS011;33007;49.082;19.306;2022-10-23T04:40:37;49.15;;;9.13;;
47273;SDS011;33007;49.082;19.306;2022-10-23T04:43:03;21.90;;;9.57;;
47273;SDS011;33007;49.082;19.306;2022-10-23T04:45:29;29.13;;;9.57;;
47273;SDS011;33007;49.082;19.306;2022-10-23T04:47:55;10.80;;;9.45;;
47273;SDS011;33007;49.082;19.306;2022-10-23T04:50:21;12.02;;;9.60;;
47273;SDS011;33007;49.082;19.306;2022-10-23T04:52:47;12.40;;;9.18;;
47273;SDS011;33007;49.082;19.306;2022-10-23T04:55:13;19.92;;;9.63;;
47273;SDS011;33007;49.082;19.306;2022-10-23T04:57:39;28.15;;;9.50;;
47273;SDS011;33007;49.082;19.306;2022-10-23T05:00:06;12.85;;;8.80;;
47273;SDS011;33007;49.082;19.306;2022-10-23T05:02:33;11.45;;;9.55;;
47273;SDS011;33007;49.082;19.306;2022-10-23T05:04:59;12.90;;;10.02;;
47273;SDS011;33007;49.082;19.306;2022-10-23T05:07:24;14.68;;;9.93;;
47273;SDS011;33007;49.082;19.306;2022-10-23T05:09:50;20.83;;;10.65;;
47273;SDS011;33007;49.082;19.306;2022-10-23T05:12:16;11.02;;;9.50;;
47273;SDS011;33007;49.082;19.306;2022-10-23T05:14:42;12.35;;;9.57;;
47273;SDS011;33007;49.082;19.306;2022-10-23T05:17:09;20.65;;;10.35;;
47273;SDS011;33007;49.082;19.306;2022-10-23T05:19:41;19.25;;;9.95;;
47273;SDS011;33007;49.082;19.306;2022-10-23T05:22:09;12.05;;;9.48;;
47273;SDS011;33007;49.082;19.306;2022-10-23T05:24:36;13.25;;;9.40;;
47273;SDS011;33007;49.082;19.306;2022-10-23T05:27:02;15.18;;;9.60;;
47273;SDS011;33007;49.082;19.306;2022-10-23T05:29:28;15.93;;;10.43;;
47273;SDS011;33007;49.082;19.306;2022-10-23T05:31:54;11.23;;;9.43;;
47273;SDS011;33007;49.082;19.306;2022-10-23T05:34:23;14.55;;;10.15;;
47273;SDS011;33007;49.082;19.306;2022-10-23T05:36:50;13.55;;;10.63;;
47273;SDS011;33007;49.082;19.306;2022-10-23T05:39:17;40.75;;;11.40;;
47273;SDS011;33007;49.082;19.306;2022-10-23T05:41:44;16.50;;;10.13;;
47273;SDS011;33007;49.082;19.306;2022-10-23T05:44:09;18.05;;;10.50;;
47273;SDS011;33007;49.082;19.306;2022-10-23T05:46:39;19.10;;;10.32;;
47273;SDS011;33007;49.082;19.306;2022-10-23T05:49:06;17.40;;;10.27;;
47273;SDS011;33007;49.082;19.306;2022-10-23T05:51:34;21.08;;;11.43;;
47273;SDS011;33007;49.082;19.306;2022-10-23T05:54:02;25.23;;;10.87;;
47273;SDS011;33007;49.082;19.306;2022-10-23T05:56:27;15.43;;;10.73;;
47273;SDS011;33007;49.082;19.306;2022-10-23T05:58:53;18.20;;;10.85;;
47273;SDS011;33007;49.082;19.306;2022-10-23T06:01:19;17.20;;;11.63;;
47273;SDS011;33007;49.082;19.306;2022-10-23T06:03:47;17.42;;;12.10;;
47273;SDS011;33007;49.082;19.306;2022-10-23T06:06:12;16.48;;;12.18;;
47273;SDS011;33007;49.082;19.306;2022-10-23T06:08:38;20.98;;;13.27;;
47273;SDS011;33007;49.082;19.306;2022-10-23T06:11:07;17.10;;;12.23;;
47273;SDS011;33007;49.082;19.306;2022-10-23T06:13:34;19.65;;;14.70;;
47273;SDS011;33007;49.082;19.306;2022-10-23T06:16:08;16.70;;;12.98;;
47273;SDS011;33007;49.082;19.306;2022-10-23T06:18:34;18.23;;;12.85;;
47273;SDS011;33007;49.082;19.306;2022-10-23T06:21:00;16.50;;;11.95;;
47273;SDS011;33007;49.082;19.306;2022-10-23T06:23:26;14.60;;;11.02;;
47273;SDS011;33007;49.082;19.306;2022-10-23T06:25:54;37.53;;;13.50;;
47273;SDS011;33007;49.082;19.306;2022-10-23T06:28:20;30.77;;;13.43;;
47273;SDS011;33007;49.082;19.306;2022-10-23T06:30:46;27.40;;;12.93;;
47273;SDS011;33007;49.082;19.306;2022-10-23T06:33:12;18.88;;;14.25;;
47273;SDS011;33007;49.082;19.306;2022-10-23T06:35:38;19.58;;;13.90;;
47273;SDS011;33007;49.082;19.306;2022-10-23T06:38:03;17.40;;;12.82;;
47273;SDS011;33007;49.082;19.306;2022-10-23T06:40:29;18.38;;;12.48;;
47273;SDS011;33007;49.082;19.306;2022-10-23T06:42:55;31.27;;;12.10;;
47273;SDS011;33007;49.082;19.306;2022-10-23T06:45:21;12.05;;;10.68;;
47273;SDS011;33007;49.082;19.306;2022-10-23T06:47:50;12.48;;;10.15;;
47273;SDS011;33007;49.082;19.306;2022-10-23T06:50:16;33.95;;;11.35;;
47273;SDS011;33007;49.082;19.306;2022-10-23T06:52:43;15.95;;;10.45;;
47273;SDS011;33007;49.082;19.306;2022-10-23T06:55:08;14.63;;;10.75;;
47273;SDS011;33007;49.082;19.306;2022-10-23T06:57:34;13.55;;;10.02;;
47273;SDS011;33007;49.082;19.306;2022-10-23T07:00:00;13.48;;;10.38;;
47273;SDS011;33007;49.082;19.306;2022-10-23T07:02:26;14.45;;;10.85;;
47273;SDS011;33007;49.082;19.306;2022-10-23T07:04:51;12.15;;;9.57;;
47273;SDS011;33007;49.082;19.306;2022-10-23T07:07:17;9.20;;;7.70;;
47273;SDS011;33007;49.082;19.306;2022-10-23T07:09:43;11.00;;;8.48;;
47273;SDS011;33007;49.082;19.306;2022-10-23T07:12:08;14.95;;;11.05;;
47273;SDS011;33007;49.082;19.306;2022-10-23T07:14:34;13.80;;;9.85;;
47273;SDS011;33007;49.082;19.306;2022-10-23T07:17:00;10.15;;;8.18;;
47273;SDS011;33007;49.082;19.306;2022-10-23T07:19:26;7.20;;;6.28;;
47273;SDS011;33007;49.082;19.306;2022-10-23T07:21:51;6.82;;;5.90;;
47273;SDS011;33007;49.082;19.306;2022-10-23T07:24:17;6.82;;;5.60;;
47273;SDS011;33007;49.082;19.306;2022-10-23T07:26:43;6.78;;;5.80;;
47273;SDS011;33007;49.082;19.306;2022-10-23T07:29:09;6.72;;;5.95;;
47273;SDS011;33007;49.082;19.306;2022-10-23T07:31:35;7.70;;;6.85;;
47273;SDS011;33007;49.082;19.306;2022-10-23T07:34:01;7.07;;;6.10;;
47273;SDS011;33007;49.082;19.306;2022-10-23T07:36:27;7.55;;;6.43;;
47273;SDS011;33007;49.082;19.306;2022-10-23T07:38:53;8.80;;;7.57;;
47273;SDS011;33007;49.082;19.306;2022-10-23T07:41:19;8.73;;;7.00;;
47273;SDS011;33007;49.082;19.306;2022-10-23T07:43:45;9.38;;;7.65;;
47273;SDS011;33007;49.082;19.306;2022-10-23T07:46:10;9.98;;;8.30;;
47273;SDS011;33007;49.082;19.306;2022-10-23T07:48:36;11.40;;;8.55;;
47273;SDS011;33007;49.082;19.306;2022-10-23T07:51:04;10.95;;;8.20;;
47273;SDS011;33007;49.082;19.306;2022-10-23T07:53:35;94.00;;;12.18;;
47273;SDS011;33007;49.082;19.306;2022-10-23T07:56:03;10.48;;;8.30;;
47273;SDS011;33007;49.082;19.306;2022-10-23T07:58:36;9.15;;;7.65;;
47273;SDS011;33007;49.082;19.306;2022-10-23T08:01:02;10.25;;;8.07;;
47273;SDS011;33007;49.082;19.306;2022-10-23T08:03:32;13.55;;;9.60;;
47273;SDS011;33007;49.082;19.306;2022-10-23T08:05:58;10.85;;;9.65;;
47273;SDS011;33007;49.082;19.306;2022-10-23T08:08:24;100.88;;;13.73;;
47273;SDS011;33007;49.082;19.306;2022-10-23T08:10:51;13.95;;;10.10;;
47273;SDS011;33007;49.082;19.306;2022-10-23T08:13:19;12.38;;;9.68;;
47273;SDS011;33007;49.082;19.306;2022-10-23T08:15:46;12.45;;;9.82;;
47273;SDS011;33007;49.082;19.306;2022-10-23T08:18:13;12.30;;;10.00;;
47273;SDS011;33007;49.082;19.306;2022-10-23T08:20:39;14.15;;;10.07;;
47273;SDS011;33007;49.082;19.306;2022-10-23T08:23:06;15.18;;;10.27;;
47273;SDS011;33007;49.082;19.306;2022-10-23T08:25:32;12.13;;;10.65;;
47273;SDS011;33007;49.082;19.306;2022-10-23T08:27:58;11.43;;;10.23;;
47273;SDS011;33007;49.082;19.306;2022-10-23T08:30:24;13.98;;;9.93;;
47273;SDS011;33007;49.082;19.306;2022-10-23T08:32:50;14.13;;;10.27;;
47273;SDS011;33007;49.082;19.306;2022-10-23T08:35:15;24.48;;;10.52;;
47273;SDS011;33007;49.082;19.306;2022-10-23T08:37:41;12.10;;;9.88;;
47273;SDS011;33007;49.082;19.306;2022-10-23T08:40:12;12.98;;;10.10;;
47273;SDS011;33007;49.082;19.306;2022-10-23T08:42:39;11.30;;;9.73;;
47273;SDS011;33007;49.082;19.306;2022-10-23T08:45:43;13.63;;;10.98;;
47273;SDS011;33007;49.082;19.306;2022-10-23T08:48:17;11.35;;;10.15;;
47273;SDS011;33007;49.082;19.306;2022-10-23T08:50:49;13.80;;;10.38;;
47273;SDS011;33007;49.082;19.306;2022-10-23T08:53:28;16.60;;;11.52;;
47273;SDS011;33007;49.082;19.306;2022-10-23T08:56:01;14.55;;;10.73;;
47273;SDS011;33007;49.082;19.306;2022-10-23T08:58:40;16.17;;;10.73;;
47273;SDS011;33007;49.082;19.306;2022-10-23T09:01:57;12.98;;;10.48;;
47273;SDS011;33007;49.082;19.306;2022-10-23T09:04:05;13.95;;;10.70;;
47273;SDS011;33007;49.082;19.306;2022-10-23T09:06:46;12.05;;;10.10;;
47273;SDS011;33007;49.082;19.306;2022-10-23T09:09:39;11.77;;;10.07;;
47273;SDS011;33007;49.082;19.306;2022-10-23T09:12:20;12.05;;;9.25;;
47273;SDS011;33007;49.082;19.306;2022-10-23T09:17:27;10.95;;;9.00;;
47273;SDS011;33007;49.082;19.306;2022-10-23T09:20:17;11.40;;;10.00;;
47273;SDS011;33007;49.082;19.306;2022-10-23T09:22:40;11.60;;;9.27;;
47273;SDS011;33007;49.082;19.306;2022-10-23T09:25:13;15.07;;;11.05;;
47273;SDS011;33007;49.082;19.306;2022-10-23T09:27:46;11.90;;;9.57;;
47273;SDS011;33007;49.082;19.306;2022-10-23T09:30:23;10.88;;;9.30;;
47273;SDS011;33007;49.082;19.306;2022-10-23T09:32:50;11.45;;;9.48;;
47273;SDS011;33007;49.082;19.306;2022-10-23T09:35:20;11.68;;;9.98;;
47273;SDS011;33007;49.082;19.306;2022-10-23T09:37:50;12.80;;;9.98;;
47273;SDS011;33007;49.082;19.306;2022-10-23T09:40:38;13.35;;;9.00;;
47273;SDS011;33007;49.082;19.306;2022-10-23T09:43:14;13.07;;;9.00;;
47273;SDS011;33007;49.082;19.306;2022-10-23T09:45:41;12.35;;;10.00;;
47273;SDS011;33007;49.082;19.306;2022-10-23T09:48:15;12.90;;;10.70;;
47273;SDS011;33007;49.082;19.306;2022-10-23T09:53:37;12.13;;;9.63;;
47273;SDS011;33007;49.082;19.306;2022-10-23T09:59:02;9.60;;;8.70;;
47273;SDS011;33007;49.082;19.306;2022-10-23T10:01:45;10.07;;;8.43;;
47273;SDS011;33007;49.082;19.306;2022-10-23T10:04:12;9.05;;;7.75;;
47273;SDS011;33007;49.082;19.306;2022-10-23T10:06:38;8.45;;;7.47;;
47273;SDS011;33007;49.082;19.306;2022-10-23T10:09:09;13.80;;;7.70;;
47273;SDS011;33007;49.082;19.306;2022-10-23T10:16:59;10.32;;;7.47;;
47273;SDS011;33007;49.082;19.306;2022-10-23T10:19:43;9.40;;;7.10;;
47273;SDS011;33007;49.082;19.306;2022-10-23T10:44:56;6.78;;;6.07;;
47273;SDS011;33007;49.082;19.306;2022-10-23T10:50:22;6.85;;;5.50;;
47273;SDS011;33007;49.082;19.306;2022-10-23T10:53:17;8.85;;;6.10;;
47273;SDS011;33007;49.082;19.306;2022-10-23T10:55:50;7.65;;;6.60;;
47273;SDS011;33007;49.082;19.306;2022-10-23T10:58:24;7.90;;;7.13;;
47273;SDS011;33007;49.082;19.306;2022-10-23T11:01:01;10.82;;;7.05;;
47273;SDS011;33007;49.082;19.306;2022-10-23T11:03:51;8.25;;;6.75;;
47273;SDS011;33007;49.082;19.306;2022-10-23T11:06:22;7.15;;;6.32;;
47273;SDS011;33007;49.082;19.306;2022-10-23T11:08:50;8.70;;;6.15;;
47273;SDS011;33007;49.082;19.306;2022-10-23T11:11:17;7.07;;;6.35;;
47273;SDS011;33007;49.082;19.306;2022-10-23T11:13:48;5.90;;;5.30;;
47273;SDS011;33007;49.082;19.306;2022-10-23T11:16:29;5.68;;;4.88;;
47273;SDS011;33007;49.082;19.306;2022-10-23T11:21:57;5.88;;;4.10;;
47273;SDS011;33007;49.082;19.306;2022-10-23T11:27:25;6.75;;;3.78;;
47273;SDS011;33007;49.082;19.306;2022-10-23T11:33:28;3.35;;;3.05;;
47273;SDS011;33007;49.082;19.306;2022-10-23T11:38:44;3.78;;;3.35;;
47273;SDS011;33007;49.082;19.306;2022-10-23T11:41:23;3.42;;;2.85;;
47273;SDS011;33007;49.082;19.306;2022-10-23T11:43:55;4.05;;;3.25;;
47273;SDS011;33007;49.082;19.306;2022-10-23T11:48:51;3.30;;;2.50;;
47273;SDS011;33007;49.082;19.306;2022-10-23T11:54:04;4.30;;;2.10;;
47273;SDS011;33007;49.082;19.306;2022-10-23T11:56:36;3.15;;;2.50;;
47273;SDS011;33007;49.082;19.306;2022-10-23T11:59:17;3.97;;;2.42;;
47273;SDS011;33007;49.082;19.306;2022-10-23T12:01:50;5.45;;;2.45;;
47273;SDS011;33007;49.082;19.306;2022-10-23T12:04:44;2.50;;;2.30;;
47273;SDS011;33007;49.082;19.306;2022-10-23T12:07:15;3.65;;;2.38;;
47273;SDS011;33007;49.082;19.306;2022-10-23T12:14:52;4.13;;;2.50;;
47273;SDS011;33007;49.082;19.306;2022-10-23T12:17:32;3.38;;;2.45;;
47273;SDS011;33007;49.082;19.306;2022-10-23T12:25:30;4.03;;;2.67;;
47273;SDS011;33007;49.082;19.306;2022-10-23T12:33:11;4.70;;;2.47;;
47273;SDS011;33007;49.082;19.306;2022-10-23T12:38:49;6.05;;;2.53;;
47273;SDS011;33007;49.082;19.306;2022-10-23T12:41:23;3.20;;;2.70;;
47273;SDS011;33007;49.082;19.306;2022-10-23T12:43:51;3.97;;;2.63;;
47273;SDS011;33007;49.082;19.306;2022-10-23T12:49:00;3.20;;;2.70;;
47273;SDS011;33007;49.082;19.306;2022-10-23T12:51:32;4.70;;;3.08;;
47273;SDS011;33007;49.082;19.306;2022-10-23T12:53:59;3.15;;;2.70;;
47273;SDS011;33007;49.082;19.306;2022-10-23T12:56:25;3.33;;;2.60;;
47273;SDS011;33007;49.082;19.306;2022-10-23T12:58:57;11.52;;;2.85;;
47273;SDS011;33007;49.082;19.306;2022-10-23T13:01:30;3.90;;;2.90;;
47273;SDS011;33007;49.082;19.306;2022-10-23T13:04:00;6.22;;;3.03;;
47273;SDS011;33007;49.082;19.306;2022-10-23T13:06:47;3.97;;;2.30;;
47273;SDS011;33007;49.082;19.306;2022-10-23T13:09:17;2.72;;;2.53;;
47273;SDS011;33007;49.082;19.306;2022-10-23T13:11:53;3.42;;;2.50;;
47273;SDS011;33007;49.082;19.306;2022-10-23T13:17:18;4.35;;;2.90;;
47273;SDS011;33007;49.082;19.306;2022-10-23T13:19:44;4.53;;;2.80;;
47273;SDS011;33007;49.082;19.306;2022-10-23T13:22:16;3.53;;;2.83;;
47273;SDS011;33007;49.082;19.306;2022-10-23T13:24:45;3.42;;;2.90;;
47273;SDS011;33007;49.082;19.306;2022-10-23T13:27:24;3.78;;;2.88;;
47273;SDS011;33007;49.082;19.306;2022-10-23T13:29:55;5.60;;;3.00;;
47273;SDS011;33007;49.082;19.306;2022-10-23T13:32:25;4.45;;;3.08;;
47273;SDS011;33007;49.082;19.306;2022-10-23T13:34:53;4.00;;;3.30;;
47273;SDS011;33007;49.082;19.306;2022-10-23T13:40:00;3.33;;;2.55;;
47273;SDS011;33007;49.082;19.306;2022-10-23T13:42:29;11.15;;;3.03;;
47273;SDS011;33007;49.082;19.306;2022-10-23T13:44:55;3.90;;;2.78;;
47273;SDS011;33007;49.082;19.306;2022-10-23T13:47:21;4.68;;;2.90;;
47273;SDS011;33007;49.082;19.306;2022-10-23T13:49:47;5.35;;;3.30;;
47273;SDS011;33007;49.082;19.306;2022-10-23T13:52:14;5.82;;;2.88;;
47273;SDS011;33007;49.082;19.306;2022-10-23T13:54:44;3.10;;;2.55;;
47273;SDS011;33007;49.082;19.306;2022-10-23T13:57:11;3.40;;;2.72;;
47273;SDS011;33007;49.082;19.306;2022-10-23T13:59:38;2.60;;;2.40;;
47273;SDS011;33007;49.082;19.306;2022-10-23T14:02:08;3.80;;;2.60;;
47273;SDS011;33007;49.082;19.306;2022-10-23T14:04:42;8.15;;;5.13;;
47273;SDS011;33007;49.082;19.306;2022-10-23T14:07:08;28.05;;;4.93;;
47273;SDS011;33007;49.082;19.306;2022-10-23T14:09:33;6.93;;;4.18;;
47273;SDS011;33007;49.082;19.306;2022-10-23T14:11:59;4.18;;;3.20;;
47273;SDS011;33007;49.082;19.306;2022-10-23T14:14:24;4.63;;;2.92;;
47273;SDS011;33007;49.082;19.306;2022-10-23T14:16:50;3.90;;;2.97;;
47273;SDS011;33007;49.082;19.306;2022-10-23T14:19:16;3.90;;;2.92;;
47273;SDS011;33007;49.082;19.306;2022-10-23T14:21:42;4.05;;;2.90;;
47273;SDS011;33007;49.082;19.306;2022-10-23T14:24:07;6.78;;;3.65;;
47273;SDS011;33007;49.082;19.306;2022-10-23T14:26:33;8.15;;;3.33;;
47273;SDS011;33007;49.082;19.306;2022-10-23T14:28:59;3.67;;;3.05;;
47273;SDS011;33007;49.082;19.306;2022-10-23T14:31:24;4.95;;;2.90;;
47273;SDS011;33007;49.082;19.306;2022-10-23T14:33:52;3.95;;;3.10;;
47273;SDS011;33007;49.082;19.306;2022-10-23T14:36:23;4.07;;;2.85;;
47273;SDS011;33007;49.082;19.306;2022-10-23T14:38:48;3.60;;;2.90;;
47273;SDS011;33007;49.082;19.306;2022-10-23T14:41:15;5.93;;;2.92;;
47273;SDS011;33007;49.082;19.306;2022-10-23T14:43:42;4.70;;;3.20;;
47273;SDS011;33007;49.082;19.306;2022-10-23T14:46:08;5.32;;;3.10;;
47273;SDS011;33007;49.082;19.306;2022-10-23T14:48:35;4.55;;;3.05;;
47273;SDS011;33007;49.082;19.306;2022-10-23T14:51:01;3.92;;;2.70;;
47273;SDS011;33007;49.082;19.306;2022-10-23T14:53:29;7.00;;;3.10;;
47273;SDS011;33007;49.082;19.306;2022-10-23T14:56:04;5.18;;;2.85;;
47273;SDS011;33007;49.082;19.306;2022-10-23T14:58:30;4.10;;;3.20;;
47273;SDS011;33007;49.082;19.306;2022-10-23T15:00:58;6.22;;;3.38;;
47273;SDS011;33007;49.082;19.306;2022-10-23T15:03:28;6.00;;;3.40;;
47273;SDS011;33007;49.082;19.306;2022-10-23T15:05:53;7.53;;;3.95;;
47273;SDS011;33007;49.082;19.306;2022-10-23T15:08:20;6.70;;;3.90;;
47273;SDS011;33007;49.082;19.306;2022-10-23T15:10:46;5.25;;;3.70;;
47273;SDS011;33007;49.082;19.306;2022-10-23T15:13:12;4.85;;;4.10;;
47273;SDS011;33007;49.082;19.306;2022-10-23T15:15:37;13.35;;;4.60;;
47273;SDS011;33007;49.082;19.306;2022-10-23T15:18:03;6.60;;;3.85;;
47273;SDS011;33007;49.082;19.306;2022-10-23T15:20:29;6.03;;;4.70;;
47273;SDS011;33007;49.082;19.306;2022-10-23T15:22:54;9.02;;;4.72;;
47273;SDS011;33007;49.082;19.306;2022-10-23T15:25:20;5.75;;;4.35;;
47273;SDS011;33007;49.082;19.306;2022-10-23T15:27:46;7.47;;;4.43;;
47273;SDS011;33007;49.082;19.306;2022-10-23T15:30:14;6.53;;;4.38;;
47273;SDS011;33007;49.082;19.306;2022-10-23T15:32:40;5.47;;;4.30;;
47273;SDS011;33007;49.082;19.306;2022-10-23T15:35:05;6.90;;;4.60;;
47273;SDS011;33007;49.082;19.306;2022-10-23T15:37:31;6.00;;;4.68;;
47273;SDS011;33007;49.082;19.306;2022-10-23T15:39:56;7.72;;;4.40;;
47273;SDS011;33007;49.082;19.306;2022-10-23T15:42:23;5.82;;;4.18;;
47273;SDS011;33007;49.082;19.306;2022-10-23T15:44:48;9.27;;;4.18;;
47273;SDS011;33007;49.082;19.306;2022-10-23T15:47:14;9.68;;;4.35;;
47273;SDS011;33007;49.082;19.306;2022-10-23T15:49:40;5.88;;;4.13;;
47273;SDS011;33007;49.082;19.306;2022-10-23T15:52:06;9.68;;;4.53;;
47273;SDS011;33007;49.082;19.306;2022-10-23T15:54:33;36.63;;;6.35;;
47273;SDS011;33007;49.082;19.306;2022-10-23T15:56:59;11.43;;;5.80;;
47273;SDS011;33007;49.082;19.306;2022-10-23T15:59:26;12.60;;;5.53;;
47273;SDS011;33007;49.082;19.306;2022-10-23T16:01:52;14.82;;;7.40;;
47273;SDS011;33007;49.082;19.306;2022-10-23T16:04:19;9.23;;;6.25;;
47273;SDS011;33007;49.082;19.306;2022-10-23T16:06:48;8.13;;;5.95;;
47273;SDS011;33007;49.082;19.306;2022-10-23T16:09:14;11.70;;;6.47;;
47273;SDS011;33007;49.082;19.306;2022-10-23T16:11:40;8.32;;;6.10;;
47273;SDS011;33007;49.082;19.306;2022-10-23T16:14:08;6.95;;;5.75;;
47273;SDS011;33007;49.082;19.306;2022-10-23T16:16:36;7.75;;;5.40;;
47273;SDS011;33007;49.082;19.306;2022-10-23T16:19:02;8.02;;;5.47;;
47273;SDS011;33007;49.082;19.306;2022-10-23T16:21:29;14.82;;;8.30;;
47273;SDS011;33007;49.082;19.306;2022-10-23T16:23:57;12.65;;;8.48;;
47273;SDS011;33007;49.082;19.306;2022-10-23T16:26:25;20.63;;;10.50;;
47273;SDS011;33007;49.082;19.306;2022-10-23T16:28:55;13.88;;;9.43;;
47273;SDS011;33007;49.082;19.306;2022-10-23T16:33:48;19.42;;;11.90;;
47273;SDS011;33007;49.082;19.306;2022-10-23T16:36:15;22.92;;;14.05;;